< < Back
Terminal Aerodrome Forecast


Current Version              Previous Versions:   1  2  3  4  5  6  7  8  9  

Terminal Aerodrome Forecast

427
FTUS42 KGSP 250531
TAFAND
TAF
KAND 250531Z 2506/2606 00000KT P6SM SKC
     FM251600 11004KT P6SM FEW050
     FM251700 14003KT P6SM FEW250
     FM260100 08004KT P6SM SCT050 PROB30 2601/2606 4SM -TSRA
      BKN025CB=

Latest METAR

902
SAUS70 KWBC 261000 RRG
MTRAND
METAR KAND 260956Z AUTO 15004KT 10SM FEW015 BKN020 BKN060 22/19 A3010
RMK AO2 SLP181 T02220189


USA.gov is the U.S. government's official web portal to all federal, state and local government web resources and services.